Mbarara, Uganda (seismic) archived on August 24, 2018
Annotated events during this period:
Time (UTC) Mag Lat Lon Depth Description
======================== === ====== ====== ===== ===========
Fri Aug 24 10:49:27 2018 5.5 91.72 10.57 6 India (165km SW of Port Blair, India)
Fri Aug 24 09:04:06 2018 7.1 -70.82 -11.04 7 Peru (138km WNW of Iberia, Peru)
Fri Aug 24 04:33:31 2018 5.4 126.03 11.16 5 Philippines (33km NE of Sulangan, Philippines)
Thu Aug 23 03:41:16 2018 5.5 -178.21 -18.16 6 Fiji (280km N of Ndoi Island, Fiji)
Thu Aug 23 03:35:15 2018 6.3 -177.88 51.51 6 Alaska (45km SSE of Tanaga Volcano, Alaska)
Wed Aug 22 22:49:11 2018 5.6 154.01 -61.21 6 Balleny Islands (Balleny Islands region)
Wed Aug 22 20:26:29 2018 5.5 27.91 -52.75 6 S.of Africa (South of Africa)
Wed Aug 22 18:49:36 2018 5.8 155.72 -6.95 6 Papua New Guinea (75km SSE of Panguna, Papua New Guinea)
Wed Aug 22 13:27:47 2018 5.8 -62.92 10.58 6 Venezuela (10km W of Yaguaraparo, Venezuela)
Wed Aug 22 09:31:47 2018 6.2 -127.60 43.64 6 Oregon (265km WNW of Bandon, Oregon)
Tue Aug 21 22:32:27 2018 6.5 168.15 -16.02 6 Vanuatu (79km E of Lakatoro, Vanuatu)
Tue Aug 21 21:31:46 2018 7.3 -62.88 10.86 7 Venezuela (30km NE of Rio Caribe, Venezuela)
Mon Aug 20 08:38:00 2018 5.5 -178.17 -18.25 6 Fiji (271km NNE of Ndoi Island, Fiji)
Sun Aug 19 18:43:56 2018 5.4 -177.97 -17.97 5 Fiji (Fiji region)
Sun Aug 19 15:28:58 2018 5.5 116.57 -8.43 6 Indonesia (5km SSE of Sembalunbumbung, Indonesia)
Sun Aug 19 15:16:34 2018 5.9 116.61 -8.42 6 Indonesia (8km ESE of Sembalunbumbung, Indonesia) *
Sun Aug 19 14:56:28 2018 6.9 116.63 -8.32 7 Indonesia (2km S of Belanting, Indonesia)
Sun Aug 19 07:56:32 2018 5.4 -177.99 -30.24 5 New Zealand (108km S of Raoul Island, New Zealand)
Sun Aug 19 04:28:59 2018 6.8 -178.02 -16.95 7 Fiji (282km ESE of Lambasa, Fiji)
Sun Aug 19 04:10:21 2018 6.3 116.58 -8.32 6 Indonesia (6km NE of Sembalunlawang, Indonesia) *
Sun Aug 19 04:06:13 2018 5.4 116.60 -8.40 5 Indonesia (6km ESE of Sembalunbumbung, Indonesia)
Sun Aug 19 02:18:52 2018 5.7 -178.35 -18.27 6 Fiji (265km N of Ndoi Island, Fiji)
Sun Aug 19 00:58:31 2018 5.4 -178.08 -17.85 5 Fiji (Fiji region) *
Sun Aug 19 00:55:45 2018 5.4 -178.12 -18.25 5 Fiji (272km NNE of Ndoi Island, Fiji) *
Sun Aug 19 00:52:33 2018 5.4 -178.33 -18.17 5 Fiji (276km N of Ndoi Island, Fiji)
Sun Aug 19 00:23:02 2018 6.3 -178.00 -18.40 6 Fiji (259km NNE of Ndoi Island, Fiji) *
Sun Aug 19 00:19:37 2018 8.2 -178.11 -18.18 8 Fiji (280km NNE of Ndoi Island, Fiji)
Sat Aug 18 19:39:07 2018 5.6 -77.29 8.83 6 Colombia (35km N of Acandi, Colombia)
Total: 28 events; 5 not plotted (*).
About this archived stream:
| Station : | MBAR (network: IRIS/IDA) at Mbarara, Uganda |
| Sensor : | Geotech KS54000 triaxial broadband borehole seismometer |
| Recorder : | Quanterra Q330 @ 100 Hz |
| Pod : | inanna@x.x.0.135 | macOS 10.12.6 | psm v. 130 |
| Speedup : | ×1,800 (transposed up about 11 octaves) |
| Loop duration (real) : | 168 hours |
| Loop duration (audio) : | 05:36 (stereo) |
| Data channels : | miniseed (II.MBAR.00.BH1 II.MBAR.00.BH2) |
| RMS : | 0.004692 |
| Spectrogram type : | raw |
| Gain correction : | 20dB |
| SoX post-processing : | highpass -2 90 highpass -2 90 compand 0.001,0.01 6:-80,-50,-40,-10,0,-3 |
| Archived on : | Sat Aug 25 00:02:19 UTC 2018 (about 8 years ago) |
| Metadata source : | auto-archived factoids |
